Data for 11/18/2016

Time Sea-Level Adjusted Pressure Absolute Pressure Temperature Relative Humidity Dew Point   
(mb) (inHg) (mb) (inHg) (C) (F) (%) (C) (F)
00:05 1025 30.27 854 25.22 -4.2 24.5 79 -7.3 18.8
00:10 1025 30.27 854 25.22 -4.2 24.4 79 -7.3 18.9
00:15 1025 30.27 854 25.22 -4.3 24.2 80 -7.3 18.9
00:20 1025 30.27 854 25.22 -4.4 24.2 80 -7.3 18.9
00:25 1025 30.27 854 25.22 -4.4 24.1 80 -7.3 18.8
00:30 1025 30.27 854 25.22 -4.4 24.1 80 -7.3 18.9
00:35 1025 30.27 854 25.22 -4.5 23.9 81 -7.3 18.8
00:40 1025 30.27 854 25.22 -4.5 23.9 80 -7.4 18.7
00:45 1025 30.27 854 25.22 -4.4 24 80 -7.4 18.7
00:50 1025 30.27 854 25.22 -4.4 24 80 -7.4 18.7
00:55 1025 30.27 854 25.22 -4.5 23.9 81 -7.3 18.8
01:00 1025 30.27 854 25.22 -4.6 23.7 82 -7.3 18.9
01:05 1025 30.27 854 25.22 -4.7 23.5 82 -7.4 18.7
01:10 1025 30.27 854 25.22 -4.7 23.5 81 -7.6 18.4
01:15 1025 30.27 854 25.22 -4.8 23.3 81 -7.5 18.4
01:20 1025 30.27 854 25.22 -5 23.1 82 -7.6 18.4
01:25 1025 30.27 854 25.22 -5 23 82 -7.7 18.2
01:30 1025 30.27 854 25.22 -4.9 23.1 81 -7.7 18.1
01:35 1025 30.27 854 25.22 -5 22.9 81 -7.8 17.9
01:40 1025 30.27 854 25.22 -5.1 22.8 80 -8 17.6
01:45 1025 30.27 854 25.22 -5.4 22.3 80 -8.3 17.1
01:50 1025 30.27 854 25.22 -5.5 22.1 81 -8.2 17.2
01:55 1025 30.27 854 25.22 -5.6 22 82 -8.2 17.2
02:00 1025 30.27 854 25.22 -5.6 21.9 81 -8.4 16.9
02:05 1025 30.27 854 25.22 -5.5 22 81 -8.4 17
02:10 1025 30.27 854 25.22 -5.4 22.3 80 -8.3 17
02:15 1025 30.27 854 25.22 -5.4 22.2 80 -8.4 16.8
02:20 1025 30.27 854 25.22 -5.7 21.8 81 -8.5 16.7
02:25 1025 30.27 854 25.22 -5.6 21.8 79 -8.7 16.4
02:30 1025 30.27 854 25.22 -5.8 21.6 80 -8.7 16.4
02:35 1025 30.27 854 25.22 -5.9 21.3 81 -8.7 16.3
02:40 1025 30.27 854 25.22 -6 21.1 80 -8.9 15.9
02:45 1025 30.27 854 25.22 -6.1 21 80 -9 15.7
02:50 1025 30.27 854 25.22 -6.1 21.1 80 -9 15.8
02:55 1025 30.27 854 25.22 -6 21.2 79 -9.1 15.7
03:00 1025 30.27 854 25.22 -6 21.1 80 -9 15.8
03:05 1025 30.27 854 25.22 -5.9 21.3 79 -9 15.8
03:10 1025 30.27 854 25.22 -5.9 21.5 78 -9.1 15.7
03:15 1025 30.27 854 25.22 -5.9 21.4 79 -8.9 15.9
03:20 1025 30.27 854 25.22 -5.9 21.4 80 -8.9 16
03:25 1025 30.27 854 25.22 -5.9 21.4 78 -9.1 15.7
03:30 1025 30.27 854 25.22 -6.1 21.1 79 -9.1 15.6
03:35 1025 30.27 854 25.22 -6.3 20.7 80 -9.2 15.4
03:40 1025 30.27 854 25.22 -6.4 20.5 80 -9.3 15.3
03:45 1025 30.27 854 25.22 -6.3 20.6 80 -9.3 15.2
03:50 1025 30.27 854 25.22 -6.4 20.5 79 -9.4 15.1
03:55 1025 30.27 855 25.25 -6.4 20.6 79 -9.5 14.9
04:00 1025 30.27 855 25.25 -6.3 20.7 78 -9.5 14.9
04:05 1025 30.27 855 25.25 -6.2 20.9 77 -9.5 14.8
04:10 1025 30.27 855 25.25 -6.1 21 77 -9.5 14.9
04:15 1026 30.3 855 25.25 -6.1 20.9 77 -9.6 14.8
04:20 1026 30.3 855 25.25 -6.3 20.7 77 -9.7 14.6
04:25 1026 30.3 855 25.25 -6.2 20.9 76 -9.7 14.6
04:30 1026 30.3 855 25.25 -6 21.3 75 -9.7 14.5
04:35 1026 30.3 855 25.25 -5.9 21.4 74 -9.9 14.3
04:40 1026 30.3 855 25.25 -5.8 21.6 74 -9.7 14.5
04:45 1026 30.3 855 25.25 -6 21.2 75 -9.7 14.6
04:50 1026 30.3 855 25.25 -6 21.2 75 -9.7 14.5
04:55 1026 30.3 855 25.25 -6.1 21.1 75 -9.8 14.3
05:00 1026 30.3 855 25.25 -6 21.2 75 -9.7 14.5
05:05 1026 30.3 855 25.25 -6.1 21 75 -9.9 14.2
05:10 1026 30.3 855 25.25 -6.1 21 74 -9.9 14.1
05:15 1026 30.3 855 25.25 -6.2 20.9 76 -9.8 14.4
05:20 1026 30.3 855 25.25 -6.3 20.6 76 -9.9 14.2
05:25 1026 30.3 855 25.25 -6.6 20.2 76 -10.2 13.7
05:30 1026 30.3 855 25.25 -7 19.5 77 -10.3 13.4
05:35 1026 30.3 855 25.25 -7.3 18.9 78 -10.5 13.1
05:40 1026 30.3 855 25.25 -7.3 18.9 77 -10.7 12.8
05:45 1026 30.3 855 25.25 -7.1 19.3 77 -10.5 13.1
05:50 1026 30.3 855 25.25 -7.1 19.3 76 -10.5 13
05:55 1026 30.3 855 25.25 -7.1 19.2 77 -10.6 13
06:00 1026 30.3 855 25.25 -7.2 19 77 -10.6 13
06:05 1026 30.3 855 25.25 -7.3 19 77 -10.7 12.8
06:10 1026 30.3 855 25.25 -7.5 18.5 78 -10.7 12.8
06:15 1026 30.3 855 25.25 -7.8 18 79 -10.8 12.5
06:20 1026 30.3 855 25.25 -7.4 18.6 76 -11 12.3
06:25 1026 30.3 855 25.25 -7.1 19.3 76 -10.7 12.8
06:30 1026 30.3 855 25.25 -7 19.4 75 -10.7 12.8
06:35 1026 30.3 855 25.25 -7.2 19 76 -10.7 12.7
06:40 1026 30.3 855 25.25 -7.3 18.9 77 -10.7 12.8
06:45 1026 30.3 855 25.25 -7.2 19 76 -10.7 12.7
06:50 1026 30.3 855 25.25 -7.3 18.9 77 -10.6 12.9
06:55 1026 30.3 855 25.25 -7.4 18.8 77 -10.7 12.8
07:00 1026 30.3 855 25.25 -7.3 18.9 76 -10.7 12.7
07:05 1026 30.3 855 25.25 -7.3 18.9 76 -10.8 12.5
07:10 1026 30.3 855 25.25 -7.4 18.6 77 -10.9 12.4
07:15 1026 30.3 855 25.25 -7.5 18.6 78 -10.7 12.8
07:20 1026 30.3 855 25.25 -7.3 18.9 77 -10.7 12.8
07:25 1026 30.3 855 25.25 -7.2 19 76 -10.8 12.6
07:30 1026 30.3 855 25.25 -7.3 18.9 76 -10.8 12.6
07:35 1026 30.3 855 25.25 -7.4 18.7 76 -10.9 12.4
07:40 1026 30.3 855 25.25 -7.4 18.7 76 -11 12.2
07:45 1026 30.3 856 25.28 -7.3 18.9 76 -10.9 12.4
07:50 1026 30.3 856 25.28 -7.2 19.1 74 -11 12.2
07:55 1027 30.33 856 25.28 -6.8 19.8 73 -10.9 12.4
08:00 1027 30.33 856 25.28 -6.6 20 72 -10.8 12.5
08:05 1027 30.33 856 25.28 -6.6 20.1 72 -10.9 12.3
08:10 1027 30.33 856 25.28 -6.5 20.2 71 -10.9 12.4
08:15 1027 30.33 856 25.28 -6.2 20.8 70 -10.8 12.5
08:20 1027 30.33 856 25.28 -6 21.2 69 -10.8 12.5
08:25 1027 30.33 856 25.28 -5.7 21.8 67 -10.9 12.4
08:30 1027 30.33 856 25.28 -5.4 22.2 66 -10.8 12.6
08:35 1027 30.33 856 25.28 -5.4 22.3 65 -10.9 12.4
08:40 1027 30.33 856 25.28 -5.3 22.4 65 -10.9 12.4
08:45 1027 30.33 856 25.28 -5.2 22.7 64 -10.9 12.4
08:50 1027 30.33 856 25.28 -4.9 23.2 63 -10.9 12.4
08:55 1027 30.33 856 25.28 -4.7 23.6 63 -10.7 12.7
09:00 1027 30.33 856 25.28 -4.4 24.1 63 -10.4 13.2
09:05 1027 30.33 856 25.28 -4.6 23.7 63 -10.6 13
09:10 1027 30.33 856 25.28 -4.5 23.9 63 -10.5 13.1
09:15 1026 30.3 856 25.28 -4.6 23.6 65 -10.4 13.4
09:20 1026 30.3 856 25.28 -4.6 23.7 65 -10.2 13.7
09:25 1026 30.3 856 25.28 -4.6 23.7 66 -10.1 13.9
09:30 1026 30.3 856 25.28 -4.4 24.2 66 -9.7 14.5
09:35 1026 30.3 856 25.28 -3.9 24.9 63 -10 14
09:40 1026 30.3 856 25.28 -3.7 25.3 61 -10.2 13.7
09:45 1026 30.3 856 25.28 -3.7 25.4 61 -10.2 13.7
09:50 1026 30.3 856 25.28 -3.2 26.2 60 -9.9 14.3
09:55 1026 30.3 856 25.28 -2.9 26.8 58 -10.1 13.9
10:00 1026 30.3 856 25.28 -3 26.6 59 -10 14
10:05 1027 30.33 856 25.28 -2.7 27.2 57 -10 14.1
10:10 1027 30.33 856 25.28 -2.7 27.1 59 -9.7 14.6
10:15 1027 30.33 856 25.28 -2.2 28 56 -9.8 14.4
10:20 1027 30.33 856 25.28 -1.6 29 53 -10.1 13.9
10:25 1027 30.33 856 25.28 -1.3 29.7 54 -9.5 14.9
10:30 1027 30.33 856 25.28 -1.7 28.9 56 -9.4 15.1
10:35 1027 30.33 856 25.28 -1.7 29 54 -9.9 14.2
10:40 1027 30.33 856 25.28 -1.3 29.7 57 -8.7 16.3
10:45 1027 30.33 856 25.28 -0.8 30.6 54 -8.9 16.1
10:50 1027 30.33 856 25.28 -0.9 30.5 54 -9 15.9
10:55 1027 30.33 856 25.28 -0.6 30.8 54 -9 15.9
11:00 1027 30.33 856 25.28 -0.6 30.9 49 -10 14
11:05 1027 30.33 856 25.28 -0.5 31.1 51 -9.5 14.9
11:10 1027 30.33 856 25.28 -0.5 31.1 53 -8.9 16.1
11:15 1027 30.33 856 25.28 -0.2 31.7 51 -9.1 15.6
11:20 1026 30.3 856 25.28 -0.3 31.5 53 -8.8 16.2
11:25 1026 30.3 856 25.28 -0.2 31.7 51 -9 15.7
11:30 1026 30.3 855 25.25 -0.2 31.7 53 -8.7 16.3
11:35 1026 30.3 855 25.25 0.2 32.3 52 -8.6 16.5
11:40 1026 30.3 855 25.25 0.6 33.1 51 -8.5 16.7
11:45 1026 30.3 855 25.25 0.7 33.2 47 -9.3 15.3
11:50 1026 30.3 855 25.25 1.1 33.9 50 -8.1 17.4
11:55 1026 30.3 855 25.25 1.8 35.3 42 -9.8 14.4
12:00 1026 30.3 855 25.25 1.8 35.2 43 -9.6 14.7
12:05 1026 30.3 855 25.25 1.7 35.1 45 -8.9 15.9
12:10 1026 30.3 855 25.25 1.6 34.9 48 -8.3 17.1
12:15 1026 30.3 855 25.25 2 35.6 44 -9.1 15.5
12:20 1026 30.3 855 25.25 2.7 36.9 41 -9.3 15.2
12:25 1026 30.3 855 25.25 2.7 36.9 44 -8.4 16.9
12:30 1026 30.3 855 25.25 3.1 37.6 42 -8.7 16.3
12:35 1026 30.3 855 25.25 3.1 37.6 42 -8.7 16.3
12:40 1026 30.3 855 25.25 2.3 36.1 46 -8.1 17.4
12:45 1026 30.3 855 25.25 2.1 35.8 41 -9.7 14.6
12:50 1026 30.3 855 25.25 1.7 35 46 -8.6 16.5
12:55 1026 30.3 855 25.25 2.2 35.9 43 -9.1 15.6
13:00 1025 30.27 855 25.25 2.9 37.1 41 -9 15.8
13:05 1025 30.27 855 25.25 2.9 37.3 40 -9.2 15.4
13:10 1025 30.27 855 25.25 2.7 36.9 39 -9.8 14.4
13:15 1025 30.27 855 25.25 2.5 36.4 41 -9.6 14.6
13:20 1025 30.27 854 25.22 2.2 35.9 47 -8.1 17.4
13:25 1025 30.27 854 25.22 2.6 36.7 44 -8.6 16.6
13:30 1025 30.27 854 25.22 2.5 36.6 40 -9.7 14.5
13:35 1025 30.27 854 25.22 2.2 35.9 40 -10.1 13.8
13:40 1025 30.27 854 25.22 2.5 36.5 42 -9.2 15.5
13:45 1025 30.27 854 25.22 2.7 36.9 41 -9.4 15.1
13:50 1025 30.27 854 25.22 2.6 36.6 43 -8.9 16
13:55 1025 30.27 854 25.22 3 37.4 43 -8.5 16.8
14:00 1025 30.27 854 25.22 3.4 38.2 39 -9.2 15.5
14:05 1025 30.27 854 25.22 2.8 37.1 42 -8.8 16.2
14:10 1025 30.27 854 25.22 2.4 36.3 42 -9.2 15.5
14:15 1025 30.27 854 25.22 2.5 36.4 41 -9.6 14.7
14:20 1025 30.27 854 25.22 2.7 36.8 42 -9 15.8
14:25 1024 30.24 854 25.22 2.7 36.8 42 -9 15.8
14:30 1024 30.24 854 25.22 2.3 36.2 43 -9 15.9
14:35 1024 30.24 854 25.22 2.2 35.9 44 -8.8 16.2
14:40 1024 30.24 854 25.22 2.1 35.8 45 -8.5 16.8
14:45 1024 30.24 853 25.19 2.3 36.2 44 -8.6 16.5
14:50 1024 30.24 853 25.19 2.3 36.1 45 -8.5 16.7
14:55 1024 30.24 854 25.22 2.5 36.5 42 -9.3 15.3
15:00 1024 30.24 854 25.22 2.3 36.2 47 -8 17.7
15:05 1024 30.24 854 25.22 2 35.6 49 -7.7 18.1
15:10 1024 30.24 853 25.19 1.9 35.5 50 -7.5 18.5
15:15 1024 30.24 853 25.19 1.9 35.5 51 -7.2 19
15:20 1024 30.24 853 25.19 1.7 35.1 51 -7.3 18.9
15:25 1024 30.24 853 25.19 1.6 34.9 51 -7.4 18.7
15:30 1024 30.24 853 25.19 1.5 34.7 51 -7.5 18.5
15:35 1024 30.24 853 25.19 1.3 34.4 52 -7.5 18.5
15:40 1024 30.24 853 25.19 1.3 34.3 53 -7.2 19
15:45 1024 30.24 853 25.19 1.2 34.2 53 -7.2 19
15:50 1024 30.24 853 25.19 1.1 34 52 -7.7 18.2
15:55 1024 30.24 853 25.19 1.1 34 51 -7.9 17.7
16:00 1024 30.24 853 25.19 1.1 33.9 51 -8 17.7
16:05 1024 30.24 853 25.19 1.1 33.9 51 -8 17.5
16:10 1024 30.24 853 25.19 1.1 33.9 51 -8.1 17.4
16:15 1024 30.24 853 25.19 1 33.8 52 -7.8 17.9
16:20 1024 30.24 853 25.19 0.9 33.6 53 -7.7 18.1
16:25 1024 30.24 853 25.19 0.7 33.3 53 -7.8 18
16:30 1024 30.24 853 25.19 0.6 33.1 53 -7.8 18
16:35 1024 30.24 853 25.19 0.5 33 54 -7.7 18.2
16:40 1024 30.24 853 25.19 0.5 32.9 54 -7.9 17.9
16:45 1024 30.24 853 25.19 0.4 32.7 53 -8 17.5
16:50 1024 30.24 853 25.19 0.3 32.6 54 -8 17.6
16:55 1024 30.24 853 25.19 0.2 32.3 54 -8.1 17.4
17:00 1024 30.24 853 25.19 0.1 32.2 54 -8.2 17.3
17:05 1024 30.24 853 25.19 0.1 32.2 54 -8.2 17.3
17:10 1024 30.24 853 25.19 0 32.1 54 -8.3 17.1
17:15 1023 30.21 853 25.19 0 32.1 54 -8.2 17.2
17:20 1023 30.21 853 25.19 -0.1 31.9 54 -8.2 17.2
17:25 1023 30.21 853 25.19 -0.1 31.8 54 -8.3 17.1
17:30 1023 30.21 853 25.19 -0.3 31.5 56 -8.1 17.5
17:35 1023 30.21 852 25.16 -0.4 31.2 57 -8 17.6
17:40 1023 30.21 852 25.16 -0.6 31 55 -8.5 16.7
17:45 1023 30.21 852 25.16 -0.5 31 55 -8.5 16.8
17:50 1023 30.21 852 25.16 -0.6 30.9 56 -8.4 16.8
17:55 1023 30.21 852 25.16 -0.6 30.9 55 -8.5 16.6
18:00 1023 30.21 853 25.19 -0.6 30.9 56 -8.4 16.8
18:05 1023 30.21 853 25.19 -0.6 30.9 55 -8.6 16.6
18:10 1023 30.21 853 25.19 -0.7 30.7 54 -8.9 16.1
18:15 1023 30.21 853 25.19 -0.6 30.8 53 -9.1 15.7
18:20 1023 30.21 853 25.19 -0.7 30.8 54 -8.9 15.9
18:25 1023 30.21 853 25.19 -0.7 30.7 54 -8.9 16
18:30 1023 30.21 853 25.19 -0.8 30.5 55 -8.7 16.3
18:35 1024 30.24 853 25.19 -0.9 30.3 59 -8 17.6
18:40 1023 30.21 853 25.19 -1 30.2 59 -8.1 17.5
18:45 1024 30.24 853 25.19 -1.1 30 58 -8.3 17.1
18:50 1024 30.24 853 25.19 -1.2 29.9 59 -8.2 17.3
18:55 1023 30.21 853 25.19 -1.3 29.7 59 -8.3 17.1
19:00 1023 30.21 853 25.19 -1.3 29.6 58 -8.5 16.7
19:05 1023 30.21 853 25.19 -1.2 29.8 55 -9.1 15.6
19:10 1023 30.21 853 25.19 -1.1 30.1 53 -9.6 14.8
19:15 1023 30.21 853 25.19 -0.9 30.3 54 -9.1 15.6
19:20 1023 30.21 853 25.19 -1.1 30 57 -8.5 16.6
19:25 1023 30.21 852 25.16 -1.3 29.6 59 -8.4 17
19:30 1023 30.21 852 25.16 -1.5 29.3 58 -8.8 16.2
19:35 1023 30.21 852 25.16 -1.5 29.4 58 -8.6 16.4
19:40 1023 30.21 852 25.16 -1.6 29.2 60 -8.4 16.9
19:45 1023 30.21 852 25.16 -1.7 29 61 -8.2 17.3
19:50 1023 30.21 852 25.16 -1.7 28.9 61 -8.3 17
19:55 1023 30.21 852 25.16 -1.7 29 61 -8.3 17
20:00 1023 30.21 852 25.16 -1.5 29.2 60 -8.4 16.9
20:05 1023 30.21 852 25.16 -1.4 29.4 59 -8.4 17
20:10 1023 30.21 852 25.16 -1.4 29.5 59 -8.4 16.9
20:15 1023 30.21 852 25.16 -1.4 29.5 59 -8.3 17
20:20 1023 30.21 852 25.16 -1.5 29.3 60 -8.2 17.2
20:25 1023 30.21 852 25.16 -1.5 29.3 60 -8.4 17
20:30 1023 30.21 852 25.16 -1.4 29.4 59 -8.5 16.8
20:35 1023 30.21 852 25.16 -1.5 29.3 58 -8.8 16.2
20:40 1023 30.21 852 25.16 -1.4 29.5 56 -9 15.7
20:45 1023 30.21 852 25.16 -1.1 30 56 -8.7 16.4
20:50 1023 30.21 852 25.16 -1.2 29.9 57 -8.6 16.6
20:55 1023 30.21 852 25.16 -1.3 29.6 63 -7.6 18.3
21:00 1023 30.21 852 25.16 -1.5 29.3 60 -8.2 17.2
21:05 1023 30.21 852 25.16 -1.5 29.2 60 -8.3 17
21:10 1023 30.21 852 25.16 -1.5 29.4 61 -8.1 17.5
21:15 1023 30.21 852 25.16 -1.3 29.6 58 -8.5 16.6
21:20 1023 30.21 852 25.16 -1.2 29.8 58 -8.5 16.7
21:25 1023 30.21 852 25.16 -1.2 29.8 58 -8.4 16.8
21:30 1023 30.21 852 25.16 -1.1 30 57 -8.6 16.4
21:35 1023 30.21 852 25.16 -1.1 30.1 57 -8.6 16.5
21:40 1023 30.21 852 25.16 -1.1 30 56 -8.7 16.4
21:45 1023 30.21 852 25.16 -1 30.1 57 -8.5 16.6
21:50 1023 30.21 852 25.16 -1 30.1 57 -8.5 16.7
21:55 1022 30.18 852 25.16 -1.1 30 58 -8.4 16.9
22:00 1022 30.18 852 25.16 -1.1 30.1 60 -8 17.6
22:05 1022 30.18 852 25.16 -1 30.3 56 -8.7 16.4
22:10 1022 30.18 852 25.16 -0.9 30.4 57 -8.4 16.9
22:15 1022 30.18 852 25.16 -0.8 30.5 54 -9 15.8
22:20 1022 30.18 852 25.16 -0.7 30.8 57 -8.1 17.4
22:25 1022 30.18 851 25.13 -0.9 30.4 57 -8.3 17.1
22:30 1022 30.18 851 25.13 -1 30.2 60 -7.8 18
22:35 1022 30.18 851 25.13 -1 30.2 59 -8.1 17.4
22:40 1022 30.18 851 25.13 -1 30.2 57 -8.4 16.8
22:45 1022 30.18 851 25.13 -0.9 30.4 60 -7.8 18
22:50 1022 30.18 851 25.13 -1 30.2 58 -8.2 17.2
22:55 1022 30.18 851 25.13 -0.8 30.5 57 -8.2 17.2
23:00 1021 30.15 851 25.13 -0.7 30.7 57 -8.3 17.1
23:05 1021 30.15 850 25.1 -0.7 30.8 57 -8.1 17.4
23:10 1021 30.15 850 25.1 -0.6 30.9 54 -8.7 16.3
23:15 1021 30.15 850 25.1 -0.4 31.2 54 -8.6 16.5
23:20 1021 30.15 850 25.1 -0.3 31.5 51 -9.2 15.5
23:25 1021 30.15 850 25.1 -0 32 50 -9.3 15.2
23:30 1021 30.15 850 25.1 0.3 32.5 48 -9.6 14.8
23:35 1021 30.15 850 25.1 0.4 32.7 48 -9.5 14.9
23:40 1021 30.15 850 25.1 0.4 32.6 52 -8.4 16.9
23:45 1021 30.15 850 25.1 0.1 32.3 50 -9 15.8
23:50 1021 30.15 850 25.1 0.2 32.4 47 -9.7 14.5
23:55 1021 30.15 850 25.1 0.5 32.9 52 -8.3 17.1
24:00 1021 30.15 850 25.1 0.2 32.4 52 -8.6 16.5